Time;durP1;ratioP1;P1;durP2;ratioP2;P2;SDS_P1;SDS_P2;PMS_P1;PMS_P2;Temp;Humidity;BMP_temperature;BMP_pressure;BME280_temperature;BME280_humidity;BME280_pressure;Samples;Min_cycle;Max_cycle;Signal;HPM_P1;HPM_P2
2021/06/22 00:00:41;;;;;;;65.08;13.62;;;;;;;23.88;66.84;99297.81;1747086;82;21046;-84
2021/06/22 00:03:07;;;;;;;67.45;12.33;;;;;;;23.81;67.00;99293.45;1746957;82;20983;-84
2021/06/22 00:05:35;;;;;;;80.95;13.83;;;;;;;23.75;67.23;99292.91;1747043;82;21062;-84
2021/06/22 00:08:01;;;;;;;78.07;11.90;;;;;;;23.66;67.33;99290.42;1746885;82;20964;-84
2021/06/22 00:10:30;;;;;;;70.32;12.30;;;;;;;23.65;67.36;99291.45;1746881;82;20980;-84
2021/06/22 00:12:57;;;;;;;69.77;11.83;;;;;;;23.60;67.47;99289.89;1744141;82;21538;-84
2021/06/22 00:15:25;;;;;;;62.65;12.70;;;;;;;23.51;67.52;99292.47;1738449;82;21618;-84
2021/06/22 00:17:51;;;;;;;66.97;13.70;;;;;;;23.37;67.68;99295.11;1738829;82;21518;-82
2021/06/22 00:20:19;;;;;;;68.25;12.98;;;;;;;23.31;67.87;99298.65;1738783;82;21348;-82
2021/06/22 00:22:45;;;;;;;58.98;11.70;;;;;;;23.30;68.01;99292.93;1738517;82;22334;-84
2021/06/22 00:25:14;;;;;;;70.28;12.55;;;;;;;23.39;67.77;99283.61;1737843;82;20976;-83
2021/06/22 00:27:40;;;;;;;69.80;12.70;;;;;;;23.39;67.73;99287.66;1738502;82;21032;-84
2021/06/22 00:30:08;;;;;;;75.60;11.93;;;;;;;23.34;67.92;99288.78;1738667;82;21071;-84
2021/06/22 00:32:34;;;;;;;80.90;12.18;;;;;;;23.26;68.17;99293.52;1738368;82;20999;-83
2021/06/22 00:35:00;;;;;;;72.90;12.35;;;;;;;23.22;68.37;99289.05;1738547;81;20993;-82
2021/06/22 00:37:27;;;;;;;75.12;12.60;;;;;;;23.26;68.56;99290.30;1738543;82;21036;-83
2021/06/22 00:39:53;;;;;;;77.92;13.60;;;;;;;23.23;68.71;99293.41;1738286;82;21567;-83
2021/06/22 00:42:19;;;;;;;73.10;12.68;;;;;;;23.17;69.02;99293.72;1738253;82;21519;-83
2021/06/22 00:44:54;;;;;;;90.75;13.88;;;;;;;23.11;69.21;99286.89;1738437;82;21035;-83
2021/06/22 00:47:22;;;;;;;82.10;14.80;;;;;;;23.12;69.35;99287.21;1738254;82;21380;-82
2021/06/22 00:49:49;;;;;;;91.63;14.20;;;;;;;23.22;69.15;99285.84;1738272;82;21031;-82
2021/06/22 00:52:19;;;;;;;94.70;14.95;;;;;;;23.20;69.13;99283.86;1738127;82;21024;-83
2021/06/22 00:54:47;;;;;;;93.25;13.72;;;;;;;23.17;69.16;99278.03;1738148;82;21068;-82
2021/06/22 00:57:15;;;;;;;104.20;15.10;;;;;;;23.16;69.17;99283.10;1738431;82;21003;-82
2021/06/22 00:59:42;;;;;;;113.62;16.20;;;;;;;23.25;68.94;99281.92;1738480;82;20975;-82
2021/06/22 01:02:09;;;;;;;101.35;16.50;;;;;;;23.27;68.78;99278.48;1738356;82;21087;-82
2021/06/22 01:04:35;;;;;;;112.57;16.02;;;;;;;23.24;68.77;99272.97;1738192;82;21579;-81
2021/06/22 01:07:20;;;;;;;99.05;15.40;;;;;;;23.20;68.79;99273.60;1738286;82;21578;-81
2021/06/22 01:09:47;;;;;;;84.40;12.98;;;;;;;23.20;68.63;99271.72;1738461;82;21550;-81
2021/06/22 01:12:16;;;;;;;98.00;13.95;;;;;;;23.25;68.38;99276.52;1738420;82;21541;-80
2021/06/22 01:14:43;;;;;;;103.53;14.47;;;;;;;23.22;68.33;99281.80;1741213;82;21066;-80
2021/06/22 01:17:11;;;;;;;93.92;14.95;;;;;;;23.17;68.51;99288.82;1740984;82;21555;-80
2021/06/22 01:19:37;;;;;;;95.53;14.07;;;;;;;23.10;68.68;99291.99;1744897;81;20960;-80
2021/06/22 01:22:04;;;;;;;83.33;12.93;;;;;;;23.14;68.55;99289.20;1744549;79;20991;-80
2021/06/22 01:24:40;;;;;;;79.92;13.85;;;;;;;23.11;68.54;99281.50;1740671;82;21011;-82
2021/06/22 01:27:06;;;;;;;69.62;12.65;;;;;;;22.89;68.87;99274.87;1716118;82;21035;-81
2021/06/22 01:29:34;;;;;;;55.50;11.50;;;;;;;22.67;69.32;99265.52;1741692;82;21090;-81
2021/06/22 01:32:02;;;;;;;84.47;13.80;;;;;;;22.55;69.60;99256.35;1739358;82;20988;-82
2021/06/22 01:34:30;;;;;;;86.55;14.47;;;;;;;22.51;69.64;99253.22;1742563;82;21034;-83
2021/06/22 01:37:01;;;;;;;72.55;12.23;;;;;;;22.46;69.92;99249.47;1739067;82;21627;-84
2021/06/22 01:39:32;;;;;;;67.55;12.73;;;;;;;22.41;70.03;99240.09;1741722;82;21054;-82
2021/06/22 01:42:00;;;;;;;91.45;12.82;;;;;;;22.37;70.01;99235.31;1731251;82;21033;-80
2021/06/22 01:44:28;;;;;;;90.42;14.23;;;;;;;22.41;70.18;99236.05;1685758;84;21089;-80
2021/06/22 01:46:55;;;;;;;86.92;14.07;;;;;;;22.56;70.28;99236.47;1711957;84;21050;-81
2021/06/22 01:49:22;;;;;;;82.57;14.60;;;;;;;22.60;70.37;99235.03;1711990;84;21081;-80
2021/06/22 01:51:49;;;;;;;95.62;15.43;;;;;;;22.59;70.50;99223.93;1726397;82;21078;-81
2021/06/22 01:54:20;;;;;;;88.22;14.85;;;;;;;22.64;70.46;99227.39;1738717;82;21011;-80
2021/06/22 01:56:53;;;;;;;97.22;15.85;;;;;;;22.70;70.16;99220.67;1741066;82;21618;-80
2021/06/22 01:59:18;;;;;;;93.92;13.58;;;;;;;22.68;70.04;99225.95;1740983;82;21593;-81
2021/06/22 02:02:03;;;;;;;76.57;13.32;;;;;;;22.63;69.97;99225.19;1714854;82;21022;-82
2021/06/22 02:04:35;;;;;;;81.05;13.95;;;;;;;22.72;69.54;99241.53;1710816;84;21359;-81
2021/06/22 02:07:06;;;;;;;72.50;13.50;;;;;;;22.73;69.33;99236.44;1711594;83;21066;-82
2021/06/22 02:09:41;;;;;;;75.35;12.82;;;;;;;22.69;69.30;99241.09;1711992;84;21105;-82
2021/06/22 02:12:10;;;;;;;81.97;13.15;;;;;;;22.69;69.21;99252.69;1712946;82;21027;-82
2021/06/22 02:14:40;;;;;;;85.17;14.80;;;;;;;22.75;69.02;99250.55;1732639;82;21106;-81
2021/06/22 02:17:06;;;;;;;70.90;12.93;;;;;;;22.75;68.90;99245.16;1738463;82;21048;-82
2021/06/22 02:19:32;;;;;;;66.70;12.82;;;;;;;22.74;68.90;99246.19;1738378;82;21068;-83
2021/06/22 02:22:01;;;;;;;81.90;12.18;;;;;;;22.71;68.85;99237.17;1730711;82;21055;-83
2021/06/22 02:24:29;;;;;;;72.78;12.78;;;;;;;22.75;68.71;99234.38;1742074;80;21000;-83
2021/06/22 02:26:56;;;;;;;63.73;12.05;;;;;;;22.73;68.70;99232.39;1741673;80;20968;-82
2021/06/22 02:29:24;;;;;;;77.85;12.80;;;;;;;22.65;68.89;99233.92;1742110;80;21019;-83
2021/06/22 02:31:50;;;;;;;70.95;11.93;;;;;;;22.59;69.05;99224.75;1739571;79;21060;-83
2021/06/22 02:34:17;;;;;;;87.60;14.03;;;;;;;22.65;68.85;99229.02;1738965;82;21032;-82
2021/06/22 02:36:45;;;;;;;66.07;11.45;;;;;;;22.79;68.39;99229.92;1738700;81;21122;-82
2021/06/22 02:39:13;;;;;;;71.50;12.15;;;;;;;22.86;68.11;99225.41;1738989;82;21083;-82
2021/06/22 02:41:44;;;;;;;80.95;13.53;;;;;;;22.84;67.99;99224.27;1739132;82;21165;-82
2021/06/22 02:44:11;;;;;;;78.28;12.25;;;;;;;22.83;67.98;99221.78;1744341;82;21513;-81
2021/06/22 02:46:41;;;;;;;78.65;12.55;;;;;;;22.88;67.84;99220.66;1738361;82;21008;-82
2021/06/22 02:49:08;;;;;;;73.97;13.48;;;;;;;22.93;67.60;99230.32;1738304;82;21028;-83
2021/06/22 02:51:36;;;;;;;86.28;12.43;;;;;;;22.90;67.58;99227.52;1738399;82;21031;-83
2021/06/22 02:54:06;;;;;;;70.42;12.73;;;;;;;22.86;67.56;99228.09;1738413;82;21022;-82
2021/06/22 02:56:32;;;;;;;75.62;12.78;;;;;;;22.92;67.47;99231.34;1738511;82;21026;-83
2021/06/22 02:58:58;;;;;;;73.52;13.13;;;;;;;23.01;67.24;99231.48;1738693;82;21559;-83
2021/06/22 03:01:26;;;;;;;74.72;13.18;;;;;;;23.02;67.25;99232.33;1738679;82;21169;-83
2021/06/22 03:03:54;;;;;;;77.35;11.75;;;;;;;23.01;67.20;99227.44;1724305;82;21588;-83
2021/06/22 03:06:22;;;;;;;57.78;11.55;;;;;;;23.02;67.18;99225.59;1723357;82;21036;-83
2021/06/22 03:08:56;;;;;;;72.35;12.78;;;;;;;23.17;66.79;99237.08;1723262;82;21636;-81
2021/06/22 03:11:24;;;;;;;75.97;13.15;;;;;;;23.21;66.63;99238.33;1723306;82;21044;-81
2021/06/22 03:13:53;;;;;;;69.20;12.65;;;;;;;23.23;66.53;99234.07;1738642;82;21047;-81
2021/06/22 03:16:21;;;;;;;70.32;12.68;;;;;;;23.25;66.47;99240.11;1743330;82;21122;-81
2021/06/22 03:18:48;;;;;;;70.75;12.50;;;;;;;23.37;66.22;99243.85;1743371;82;21063;-81
2021/06/22 03:21:15;;;;;;;85.67;13.38;;;;;;;23.52;65.94;99242.86;1743429;82;21066;-82
2021/06/22 03:23:42;;;;;;;73.40;12.45;;;;;;;23.58;65.48;99245.25;1743384;82;21530;-81
2021/06/22 03:26:09;;;;;;;77.30;11.50;;;;;;;23.64;64.97;99256.05;1743513;82;21503;-81
2021/06/22 03:28:37;;;;;;;57.48;11.45;;;;;;;23.67;64.90;99258.35;1743439;82;21051;-82
2021/06/22 03:31:11;;;;;;;65.72;12.50;;;;;;;23.85;64.52;99259.59;1742097;82;21063;-84
2021/06/22 03:33:38;;;;;;;69.07;12.03;;;;;;;24.01;63.94;99264.62;1743423;82;21027;-84
2021/06/22 03:36:06;;;;;;;57.30;11.28;;;;;;;24.24;63.36;99257.16;1743846;82;21073;-83
2021/06/22 03:38:32;;;;;;;61.20;11.35;;;;;;;24.57;62.77;99263.84;1743266;82;20977;-82
2021/06/22 03:41:00;;;;;;;55.98;10.28;;;;;;;24.95;62.00;99256.38;1744024;82;21540;-82
2021/06/22 03:43:26;;;;;;;55.23;10.20;;;;;;;25.37;61.04;99265.99;1744027;82;21538;-82
2021/06/22 03:45:54;;;;;;;56.33;10.43;;;;;;;25.81;59.72;99254.78;1743665;82;21036;-77
2021/06/22 03:48:20;;;;;;;54.13;8.83;;;;;;;26.23;58.29;99260.50;1743705;82;20997;-77
2021/06/22 03:50:47;;;;;;;51.68;10.90;;;;;;;26.62;56.75;99259.78;1743664;82;21001;-78
2021/06/22 03:53:14;;;;;;;52.17;10.13;;;;;;;26.95;55.30;99254.53;1743671;82;21046;-78
2021/06/22 03:55:40;;;;;;;55.85;11.10;;;;;;;27.22;54.04;99258.27;1743575;82;20996;-78
2021/06/22 03:58:11;;;;;;;63.92;11.53;;;;;;;27.37;53.79;99252.97;1743379;82;21574;-75
2021/06/22 04:00:39;;;;;;;52.75;10.03;;;;;;;27.39;53.65;99250.88;1741301;82;21007;-78
2021/06/22 04:03:13;;;;;;;49.67;9.25;;;;;;;27.37;53.09;99244.28;1739816;82;21048;-76
2021/06/22 04:05:41;;;;;;;48.73;8.53;;;;;;;27.34;52.56;99241.20;1734337;82;21027;-77
2021/06/22 04:08:15;;;;;;;43.45;8.63;;;;;;;27.31;52.27;99241.13;1725882;82;21008;-77
2021/06/22 04:10:41;;;;;;;44.00;8.80;;;;;;;27.30;52.49;99236.24;1732153;82;21083;-77
2021/06/22 04:13:08;;;;;;;41.40;8.13;;;;;;;27.41;52.14;99239.27;1736505;82;21027;-77
2021/06/22 04:15:35;;;;;;;37.70;8.10;;;;;;;27.51;51.91;99238.17;1738811;82;21511;-77
2021/06/22 04:18:09;;;;;;;41.13;7.12;;;;;;;27.61;51.38;99236.23;1736090;82;21033;-77
2021/06/22 04:20:37;;;;;;;37.65;7.37;;;;;;;27.69;51.02;99240.52;1727260;82;21010;-77
2021/06/22 04:23:05;;;;;;;43.98;8.05;;;;;;;27.79;50.61;99247.57;1732224;82;21010;-76
2021/06/22 04:25:32;;;;;;;37.88;7.10;;;;;;;27.87;50.00;99252.65;1736128;82;20991;-77
2021/06/22 04:28:02;;;;;;;48.00;8.23;;;;;;;28.05;49.81;99255.02;1738054;82;21054;-76
2021/06/22 04:30:31;;;;;;;42.48;8.28;;;;;;;28.28;49.12;99252.83;1738061;82;20963;-77
2021/06/22 04:32:57;;;;;;;49.75;8.08;;;;;;;28.40;49.29;99254.18;1738163;82;21034;-77
2021/06/22 04:35:27;;;;;;;41.35;7.65;;;;;;;28.35;48.72;99259.50;1737987;82;21074;-78
2021/06/22 04:37:57;;;;;;;42.75;7.72;;;;;;;28.34;48.04;99255.97;1729634;82;20971;-77
2021/06/22 04:40:23;;;;;;;40.63;7.22;;;;;;;28.56;47.29;99262.16;1722441;82;22243;-78
2021/06/22 04:42:49;;;;;;;42.03;6.60;;;;;;;28.91;46.40;99255.84;1733714;82;21003;-78
2021/06/22 04:45:19;;;;;;;31.65;6.20;;;;;;;29.19;45.27;99252.87;1738397;82;21012;-78
2021/06/22 04:47:45;;;;;;;36.85;7.08;;;;;;;29.37;44.52;99246.42;1732543;82;21033;-78
2021/06/22 04:50:12;;;;;;;30.75;6.42;;;;;;;29.52;44.13;99244.52;1727695;82;20933;-78
2021/06/22 04:52:38;;;;;;;29.48;7.17;;;;;;;29.69;43.68;99249.98;1728981;82;21062;-78
2021/06/22 04:55:15;;;;;;;31.73;6.35;;;;;;;29.89;42.77;99246.27;1733094;82;21559;-76
2021/06/22 04:57:44;;;;;;;38.28;6.92;;;;;;;30.15;42.66;99237.11;1725675;82;21559;-77
2021/06/22 05:00:15;;;;;;;50.88;30.12;;;;;;;30.38;41.89;99236.63;1720843;82;21021;-76
2021/06/22 05:02:41;;;;;;;52.30;19.80;;;;;;;30.50;41.68;99225.63;1731283;82;21011;-76
2021/06/22 05:05:09;;;;;;;29.00;6.65;;;;;;;30.68;41.50;99225.86;1728009;82;21503;-76
2021/06/22 05:07:35;;;;;;;33.75;6.33;;;;;;;30.93;40.81;99227.27;1731441;82;21027;-76
2021/06/22 05:10:04;;;;;;;32.17;6.08;;;;;;;31.13;39.77;99224.80;1682179;84;21097;-78
2021/06/22 05:12:31;;;;;;;27.73;6.72;;;;;;;31.27;39.00;99219.76;1685584;85;21103;-78
2021/06/22 05:14:57;;;;;;;28.32;5.45;;;;;;;31.36;37.97;99220.12;1688072;85;21525;-78
2021/06/22 05:17:24;;;;;;;30.85;6.45;;;;;;;31.28;38.48;99214.58;1686963;85;21013;-78
2021/06/22 05:19:50;;;;;;;24.80;6.78;;;;;;;31.36;38.35;99218.75;1736720;81;21051;-77
2021/06/22 05:22:17;;;;;;;32.78;6.70;;;;;;;31.48;37.79;99213.12;1731387;81;21011;-77
2021/06/22 05:24:43;;;;;;;21.68;5.55;;;;;;;31.53;37.61;99218.08;1735635;82;21043;-77
2021/06/22 05:27:10;;;;;;;18.30;4.62;;;;;;;31.66;37.27;99222.31;1734664;81;20980;-76
2021/06/22 05:29:36;;;;;;;25.62;5.20;;;;;;;31.82;37.04;99223.84;1728150;82;20984;-77
2021/06/22 05:32:05;;;;;;;22.15;4.95;;;;;;;31.95;36.47;99230.77;1710734;81;20999;-77
2021/06/22 05:34:32;;;;;;;61.00;8.05;;;;;;;31.94;35.77;99231.29;1718003;82;21477;-78
2021/06/22 05:36:58;;;;;;;18.82;4.80;;;;;;;31.84;36.42;99227.11;1731643;81;21066;-77
2021/06/22 05:39:25;;;;;;;20.30;5.33;;;;;;;31.88;36.70;99235.62;1743491;82;21022;-77
2021/06/22 05:41:51;;;;;;;22.98;5.33;;;;;;;31.95;36.51;99244.44;1737969;81;20988;-78
2021/06/22 05:44:18;;;;;;;34.80;5.75;;;;;;;31.97;36.20;99243.61;1725989;81;20963;-77
2021/06/22 05:46:44;;;;;;;30.05;5.83;;;;;;;31.94;37.15;99253.16;1743441;82;21581;-78
2021/06/22 05:49:11;;;;;;;18.80;4.87;;;;;;;32.01;36.62;99254.33;1749024;81;21598;-77
2021/06/22 05:51:38;;;;;;;69.60;8.48;;;;;;;32.03;36.70;99253.51;1758633;81;21564;-77
2021/06/22 05:54:05;;;;;;;20.20;5.33;;;;;;;32.10;36.09;99248.65;1723881;81;21007;-78
2021/06/22 05:56:31;;;;;;;14.53;4.92;;;;;;;32.13;36.31;99239.91;1743744;82;20983;-77
2021/06/22 05:58:58;;;;;;;29.63;5.95;;;;;;;32.10;36.16;99243.18;1739224;81;21025;-78
2021/06/22 06:01:26;;;;;;;22.77;6.00;;;;;;;31.93;36.25;99239.77;1743289;82;21039;-78
2021/06/22 06:03:52;;;;;;;23.65;5.28;;;;;;;31.77;36.89;99240.20;1737454;82;21136;-78
2021/06/22 06:06:18;;;;;;;19.02;5.17;;;;;;;31.68;36.44;99233.83;1737761;81;21535;-78
2021/06/22 06:08:44;;;;;;;22.48;4.83;;;;;;;31.56;36.21;99233.69;1729189;82;21564;-78
2021/06/22 06:11:11;;;;;;;18.25;5.05;;;;;;;31.36;36.74;99233.78;1734666;82;21519;-78
2021/06/22 06:13:40;;;;;;;18.82;4.62;;;;;;;31.22;37.03;99233.36;1743548;82;21004;-77
2021/06/22 06:16:07;;;;;;;19.30;4.78;;;;;;;31.15;37.17;99234.94;1738904;81;21073;-77
2021/06/22 06:18:33;;;;;;;18.40;4.72;;;;;;;31.09;36.90;99234.59;1741195;82;20992;-78
2021/06/22 06:21:00;;;;;;;17.42;4.50;;;;;;;31.05;37.06;99227.45;1735194;82;20966;-78
2021/06/22 06:23:32;;;;;;;21.93;5.15;;;;;;;31.05;37.06;99229.30;1739726;81;20984;-77
2021/06/22 06:25:57;;;;;;;21.07;4.65;;;;;;;31.11;37.57;99224.22;1741942;82;21005;-78
2021/06/22 06:28:30;;;;;;;23.10;5.33;;;;;;;31.20;37.58;99230.89;1738311;81;21037;-78
2021/06/22 06:30:55;;;;;;;20.17;4.75;;;;;;;31.25;37.04;99230.10;1714041;84;21049;-78
2021/06/22 06:33:22;;;;;;;19.87;4.80;;;;;;;31.34;37.46;99226.38;1731689;81;21074;-78
2021/06/22 06:35:48;;;;;;;16.77;4.53;;;;;;;31.48;37.46;99209.83;1712396;82;22181;-77
2021/06/22 06:38:17;;;;;;;15.72;3.98;;;;;;;31.58;37.45;99202.28;1721634;81;21060;-78
2021/06/22 06:40:43;;;;;;;15.90;4.00;;;;;;;31.65;35.63;99201.56;1742183;82;21023;-78
2021/06/22 06:43:11;;;;;;;19.60;4.83;;;;;;;31.65;35.71;99200.19;1742902;82;21004;-77
2021/06/22 06:45:38;;;;;;;24.87;4.50;;;;;;;31.69;35.91;99200.50;1706887;83;21009;-78
2021/06/22 06:48:05;;;;;;;23.35;4.30;;;;;;;31.74;36.17;99206.01;1708551;84;21048;-76
2021/06/22 06:50:32;;;;;;;17.67;4.78;;;;;;;31.80;36.34;99211.77;1693837;83;22132;-78
2021/06/22 06:52:58;;;;;;;17.48;4.25;;;;;;;31.82;35.98;99209.61;1723809;82;21540;-77
2021/06/22 06:55:28;;;;;;;21.05;4.62;;;;;;;31.60;36.05;99197.91;1737359;81;21024;-77
2021/06/22 06:58:04;;;;;;;16.52;4.72;;;;;;;31.49;36.91;99207.95;1742457;82;21574;-77
2021/06/22 07:00:34;;;;;;;25.57;5.67;;;;;;;31.57;37.22;99212.11;1732438;82;21054;-76
2021/06/22 07:03:00;;;;;;;23.57;4.80;;;;;;;31.72;36.70;99216.37;1732660;81;21030;-78
2021/06/22 07:05:27;;;;;;;22.82;5.55;;;;;;;31.82;36.08;99225.20;1731807;82;21015;-78
2021/06/22 07:07:54;;;;;;;20.37;4.85;;;;;;;31.87;36.60;99233.44;1710471;81;21501;-75
2021/06/22 07:10:20;;;;;;;22.48;4.58;;;;;;;31.94;36.29;99250.98;1740818;82;21659;-78
2021/06/22 07:12:47;;;;;;;12.68;4.35;;;;;;;32.02;35.86;99247.75;1733224;81;21505;-77
2021/06/22 07:15:16;;;;;;;23.60;4.83;;;;;;;31.97;36.27;99254.55;1728443;82;21054;-84
2021/06/22 07:17:43;;;;;;;28.25;4.70;;;;;;;31.94;36.39;99259.19;1738366;81;21509;-85
2021/06/22 07:20:11;;;;;;;22.50;5.42;;;;;;;31.81;36.78;99257.16;1737646;82;21169;-86
2021/06/22 07:22:39;;;;;;;15.55;4.80;;;;;;;31.72;36.53;99250.53;1729647;82;21039;-86
2021/06/22 07:25:07;;;;;;;18.52;4.65;;;;;;;31.59;36.73;99258.59;1702477;81;21006;-86
2021/06/22 07:27:33;;;;;;;17.45;4.92;;;;;;;31.29;37.07;99223.59;1726576;82;21030;-82
2021/06/22 07:30:00;;;;;;;24.30;5.42;;;;;;;31.46;37.49;99246.70;1720820;81;21004;-89
2021/06/22 07:32:26;;;;;;;24.47;5.33;;;;;;;31.42;37.38;99249.14;1721901;81;21038;-91
2021/06/22 07:34:53;;;;;;;23.40;5.10;;;;;;;31.26;37.31;99249.52;1721297;81;21095;-92
2021/06/22 07:37:19;;;;;;;15.40;4.10;;;;;;;31.07;38.06;99257.77;1693826;84;21532;-90
2021/06/22 07:39:49;;;;;;;13.62;4.08;;;;;;;30.93;38.49;99251.84;1665638;86;21081;-90
2021/06/22 07:42:19;;;;;;;13.83;4.28;;;;;;;30.87;38.73;99259.13;1705500;84;21128;-90
2021/06/22 07:44:46;;;;;;;19.45;4.12;;;;;;;30.85;39.44;99263.48;1691624;84;21087;-90
2021/06/22 07:47:13;;;;;;;16.70;4.17;;;;;;;30.99;39.40;99267.21;1716310;81;21046;-91
2021/06/22 07:49:40;;;;;;;15.58;4.22;;;;;;;31.17;39.13;99264.16;1726804;82;21040;-80
2021/06/22 07:52:07;;;;;;;26.07;5.67;;;;;;;31.24;38.53;99254.95;1723376;81;21025;-79
2021/06/22 07:54:34;;;;;;;19.52;5.08;;;;;;;31.29;38.95;99255.81;1722347;83;20996;-79
2021/06/22 07:57:00;;;;;;;17.23;4.28;;;;;;;31.41;38.04;99259.78;1684702;84;22354;-77
2021/06/22 07:59:27;;;;;;;16.40;4.15;;;;;;;31.44;38.00;99255.16;1732562;81;20981;-75
2021/06/22 08:01:54;;;;;;;26.23;4.87;;;;;;;31.48;37.67;99252.19;1721983;83;21104;-77
2021/06/22 08:04:20;;;;;;;22.85;4.70;;;;;;;31.21;37.29;99206.57;1703429;83;21414;-76
2021/06/22 08:06:47;;;;;;;19.70;4.83;;;;;;;31.43;37.72;99243.94;1722108;82;21548;-74
2021/06/22 08:09:13;;;;;;;18.05;4.30;;;;;;;31.50;37.71;99243.20;1698253;83;21084;-76
2021/06/22 08:11:41;;;;;;;24.15;5.25;;;;;;;31.54;37.85;99241.59;1684800;85;21116;-74
2021/06/22 08:14:08;;;;;;;23.62;5.28;;;;;;;31.66;37.24;99240.08;1730440;81;20973;-76
2021/06/22 08:16:35;;;;;;;33.67;6.17;;;;;;;31.74;37.58;99245.64;1716328;81;21099;-78
2021/06/22 08:19:03;;;;;;;41.00;7.45;;;;;;;31.77;36.48;99234.17;1706398;83;21035;-75
2021/06/22 08:21:29;;;;;;;40.78;7.65;;;;;;;31.81;35.86;99233.93;1708316;83;21146;-76
2021/06/22 08:23:56;;;;;;;41.33;6.50;;;;;;;31.84;35.74;99238.05;1710022;84;21019;-74
2021/06/22 08:26:22;;;;;;;37.33;6.55;;;;;;;31.85;35.70;99241.88;1712540;82;21013;-75
2021/06/22 08:28:48;;;;;;;50.98;7.92;;;;;;;31.85;36.14;99249.27;1707625;82;21633;-74
2021/06/22 08:31:16;;;;;;;40.50;7.92;;;;;;;31.92;35.84;99244.95;1708291;83;21048;-76
2021/06/22 08:33:44;;;;;;;58.95;7.95;;;;;;;31.97;35.21;99247.72;1719370;82;21039;-75
2021/06/22 08:36:10;;;;;;;62.48;9.78;;;;;;;32.02;35.10;99250.48;1709835;83;21014;-75
2021/06/22 08:38:38;;;;;;;60.73;10.20;;;;;;;32.13;35.27;99259.61;1704923;82;21004;-76
2021/06/22 08:41:06;;;;;;;67.55;8.45;;;;;;;32.21;34.95;99258.32;1704321;83;21070;-75
2021/06/22 08:43:33;;;;;;;58.58;9.08;;;;;;;32.24;34.40;99253.68;1707395;82;21057;-76
2021/06/22 08:46:04;;;;;;;72.40;10.05;;;;;;;32.23;34.34;99252.03;1709807;83;21005;-75
2021/06/22 08:48:31;;;;;;;61.20;10.63;;;;;;;32.18;34.17;99242.70;1705823;83;21551;-76
2021/06/22 08:50:58;;;;;;;70.12;10.38;;;;;;;32.12;34.67;99238.25;1707128;83;21022;-76
2021/06/22 08:53:31;;;;;;;115.22;14.60;;;;;;;32.12;35.05;99240.98;1704561;82;21032;-76
2021/06/22 08:56:02;;;;;;;84.40;12.07;;;;;;;32.14;34.28;99240.75;1705820;83;21030;-75
2021/06/22 08:58:31;;;;;;;83.90;11.48;;;;;;;32.06;34.36;99248.05;1684195;82;21014;-75
2021/06/22 09:00:57;;;;;;;72.75;10.28;;;;;;;31.96;34.71;99250.16;1706082;82;21018;-76
2021/06/22 09:03:26;;;;;;;106.25;13.35;;;;;;;31.91;35.00;99247.39;1706886;82;21012;-73
2021/06/22 09:05:54;;;;;;;86.08;13.80;;;;;;;31.98;34.44;99243.90;1684245;83;21047;-74
2021/06/22 09:08:32;;;;;;;113.10;13.20;;;;;;;32.05;34.31;99245.87;1704083;83;21564;-75
2021/06/22 09:11:14;;;;;;;92.17;13.62;;;;;;;32.08;34.16;99238.50;1701942;82;21082;-75
2021/06/22 09:13:42;;;;;;;106.03;13.90;;;;;;;32.11;33.42;99247.56;1636150;86;21055;-74
2021/06/22 09:16:10;;;;;;;89.67;13.03;;;;;;;32.13;34.02;99248.11;1707059;82;22261;-75
2021/06/22 09:18:44;;;;;;;98.37;13.20;;;;;;;32.21;34.26;99247.38;1706521;82;21009;-78
2021/06/22 09:21:21;;;;;;;151.15;17.65;;;;;;;32.26;34.11;99235.10;1706565;82;21062;-78
2021/06/22 09:23:50;;;;;;;110.90;13.68;;;;;;;32.27;34.09;99232.66;1708038;82;21047;-76
2021/06/22 09:26:32;;;;;;;83.87;13.00;;;;;;;32.27;34.30;99237.57;1705415;82;21008;-81
2021/06/22 09:31:19;;;;;;;98.30;12.88;;;;;;;32.33;33.62;99235.70;1805652;78;22991;-86
2021/06/22 09:33:52;;;;;;;101.22;13.90;;;;;;;32.17;33.48;99238.84;1763812;80;21067;-86
2021/06/22 09:36:26;;;;;;;97.30;12.18;;;;;;;32.02;33.79;99243.65;1742613;80;21634;-86
2021/06/22 09:39:05;;;;;;;82.17;11.68;;;;;;;31.97;33.85;99239.52;1741378;80;20997;-86
2021/06/22 09:41:42;;;;;;;85.20;11.60;;;;;;;31.89;33.81;99228.52;1747594;81;20976;-85
2021/06/22 09:44:13;;;;;;;86.22;12.47;;;;;;;31.81;33.69;99237.22;1743941;80;20976;-85
2021/06/22 09:46:49;;;;;;;75.70;11.75;;;;;;;31.78;33.64;99233.09;1740608;80;21063;-85
2021/06/22 09:49:26;;;;;;;129.32;15.53;;;;;;;31.80;33.77;99231.46;1743585;80;21138;-85
2021/06/22 09:52:01;;;;;;;88.58;13.65;;;;;;;31.77;33.36;99236.09;1745672;80;21493;-86
2021/06/22 09:54:33;;;;;;;104.80;14.93;;;;;;;31.75;33.48;99239.63;1746720;80;21151;-85
2021/06/22 09:57:18;;;;;;;90.15;13.28;;;;;;;31.71;33.12;99229.75;1747590;80;21083;-86
2021/06/22 10:00:08;;;;;;;;;;;;;;;31.73;33.11;99224.02;1742670;80;21029;-87
2021/06/22 10:02:52;;;;;;;81.90;17.83;;;;;;;31.72;32.85;99222.39;1736469;80;20143;-86
2021/06/22 10:05:18;;;;;;;82.15;11.45;;;;;;;31.66;33.84;99217.41;1745353;80;22133;-86
2021/06/22 10:07:46;;;;;;;73.02;12.40;;;;;;;31.75;33.45;99227.32;1744063;80;21032;-86
2021/06/22 10:10:13;;;;;;;86.87;11.65;;;;;;;31.85;33.18;99222.75;1742704;80;21043;-89
2021/06/22 10:12:46;;;;;;;80.17;11.25;;;;;;;31.91;32.99;99223.63;1743495;80;21579;-88
2021/06/22 10:15:13;;;;;;;79.40;10.82;;;;;;;31.93;33.39;99220.62;1732902;80;21060;-89
2021/06/22 10:17:41;;;;;;;77.15;12.03;;;;;;;31.92;34.00;99217.60;1740592;80;21012;-88
2021/06/22 10:20:08;;;;;;;82.20;11.83;;;;;;;31.96;33.51;99215.98;1737351;81;22263;-87
2021/06/22 10:22:36;;;;;;;97.00;12.65;;;;;;;31.96;32.62;99212.72;1748822;80;21000;-88
2021/06/22 10:25:04;;;;;;;75.15;12.37;;;;;;;32.00;32.84;99215.20;1749311;81;20999;-87
2021/06/22 10:27:31;;;;;;;86.32;12.95;;;;;;;32.10;32.88;99216.36;1708251;82;21032;-87
2021/06/22 10:30:02;;;;;;;83.17;11.73;;;;;;;32.18;32.33;99215.35;1719439;83;21100;-87
2021/06/22 10:32:29;;;;;;;82.35;11.97;;;;;;;32.21;31.72;99207.72;1723867;81;21067;-86
2021/06/22 10:34:59;;;;;;;81.72;12.30;;;;;;;32.19;31.20;99206.06;1736168;81;21566;-87
2021/06/22 10:37:44;;;;;;;86.08;11.48;;;;;;;32.15;30.08;99215.86;1692210;83;21005;-86
2021/06/22 10:40:25;;;;;;;82.65;11.10;;;;;;;32.12;30.36;99204.62;1733975;81;21053;-87
2021/06/22 10:42:59;;;;;;;96.08;13.22;;;;;;;32.15;31.29;99206.81;1732750;81;21549;-88
2021/06/22 10:45:25;;;;;;;87.17;12.35;;;;;;;32.24;31.14;99197.08;1734826;82;21638;-80
2021/06/22 10:47:56;;;;;;;71.85;10.23;;;;;;;32.31;30.64;99214.06;1710902;82;21081;-81
2021/06/22 10:50:31;;;;;;;80.57;11.57;;;;;;;32.30;31.10;99196.55;1691894;84;21722;-86
2021/06/22 10:53:07;;;;;;;85.07;11.75;;;;;;;32.29;30.67;99201.73;1720394;81;21104;-84
2021/06/22 10:55:46;;;;;;;93.07;12.75;;;;;;;32.26;30.90;99202.28;1690257;84;21042;-86
2021/06/22 10:58:14;;;;;;;81.80;12.20;;;;;;;32.23;31.26;99201.42;1734173;81;21033;-85
2021/06/22 11:01:00;;;;;;;97.80;12.75;;;;;;;32.22;31.61;99194.33;1729773;81;21048;-83
2021/06/22 11:03:32;;;;;;;74.10;10.43;;;;;;;32.26;31.72;99206.38;1726256;81;21038;-88
2021/06/22 11:06:06;;;;;;;74.17;11.12;;;;;;;32.31;32.42;99192.73;1736510;81;21033;-78
2021/06/22 11:08:34;;;;;;;81.87;13.58;;;;;;;32.34;31.94;99193.55;1737430;81;21025;-77
2021/06/22 11:11:12;;;;;;;77.95;11.33;;;;;;;32.36;32.31;99194.13;1733849;81;21045;-77
2021/06/22 11:13:47;;;;;;;82.55;12.45;;;;;;;32.41;32.20;99206.46;1740576;81;21084;-75
2021/06/22 11:16:20;;;;;;;88.45;11.78;;;;;;;32.38;32.10;99193.33;1728358;81;22399;-75
2021/06/22 11:18:57;;;;;;;72.15;11.20;;;;;;;32.30;32.88;99200.66;1693750;83;21112;-76
2021/06/22 11:21:32;;;;;;;89.90;11.85;;;;;;;32.27;33.42;99198.46;1725541;81;21563;-76
2021/06/22 11:24:08;;;;;;;83.62;11.00;;;;;;;32.27;33.29;99195.72;1728388;81;20957;-77
2021/06/22 11:26:48;;;;;;;92.57;12.55;;;;;;;32.29;33.28;99193.53;1730780;81;21670;-76
2021/06/22 11:29:20;;;;;;;89.52;12.05;;;;;;;31.89;33.13;99123.82;1732958;82;21112;-77